createdAt,value
2023-04-09T00:01:15.114Z,7.50
2023-04-09T00:06:16.564Z,7.50
2023-04-09T00:11:18.014Z,7.40
2023-04-09T00:16:19.522Z,7.30
2023-04-09T00:21:20.972Z,7.40
2023-04-09T00:26:22.422Z,7.30
2023-04-09T00:31:23.913Z,7.30
2023-04-09T00:36:27.031Z,7.30
2023-04-09T00:41:28.597Z,7.20
2023-04-09T00:46:30.047Z,7.20
2023-04-09T00:51:31.501Z,7.20
2023-04-09T00:56:32.948Z,7.20
2023-04-09T01:01:34.528Z,7.20
2023-04-09T01:06:36.016Z,7.10
2023-04-09T01:11:37.444Z,7.10
2023-04-09T01:16:38.927Z,7.10
2023-04-09T01:21:40.384Z,7.10
2023-04-09T01:26:41.800Z,7.10
2023-04-09T01:31:43.263Z,7.10
2023-04-09T01:36:44.722Z,7.10
2023-04-09T01:41:46.203Z,7.10
2023-04-09T01:46:47.643Z,7.10
2023-04-09T01:51:49.115Z,7.10
2023-04-09T01:56:50.551Z,7.10
2023-04-09T02:01:52.122Z,7.10
2023-04-09T02:06:53.601Z,7.10
2023-04-09T02:11:55.088Z,7.20
2023-04-09T02:16:56.540Z,7.10
2023-04-09T02:21:57.982Z,7.00
2023-04-09T02:26:59.432Z,7.00
2023-04-09T02:32:00.893Z,7.00
2023-04-09T02:37:02.323Z,7.00
2023-04-09T02:42:03.791Z,6.90
2023-04-09T02:47:05.245Z,6.90
2023-04-09T02:52:06.678Z,6.90
2023-04-09T02:57:08.106Z,6.90
2023-04-09T03:02:09.669Z,6.90
2023-04-09T03:07:11.175Z,6.80
2023-04-09T03:12:12.608Z,6.80
2023-04-09T03:17:14.104Z,6.80
2023-04-09T03:22:15.534Z,6.80
2023-04-09T03:27:16.972Z,6.80
2023-04-09T03:32:19.155Z,6.80
2023-04-09T03:37:20.675Z,6.80
2023-04-09T03:42:22.119Z,6.80
2023-04-09T03:47:23.635Z,6.80
2023-04-09T03:52:25.117Z,6.70
2023-04-09T03:57:26.536Z,6.70
2023-04-09T04:02:28.061Z,6.80
2023-04-09T04:07:29.610Z,6.80
2023-04-09T04:12:31.032Z,6.80
2023-04-09T04:17:32.529Z,6.70
2023-04-09T04:22:34.020Z,6.70
2023-04-09T04:27:35.436Z,6.60
2023-04-09T04:32:36.901Z,6.60
2023-04-09T04:37:38.384Z,6.60
2023-04-09T04:42:39.812Z,6.60
2023-04-09T04:47:41.269Z,6.60
2023-04-09T04:52:42.770Z,6.60
2023-04-09T04:57:44.213Z,6.60
2023-04-09T05:02:45.762Z,6.60
2023-04-09T05:07:47.261Z,6.60
2023-04-09T05:12:48.689Z,6.70
2023-04-09T05:17:50.185Z,6.70
2023-04-09T05:22:51.602Z,6.70
2023-04-09T05:27:53.017Z,6.70
2023-04-09T05:32:54.463Z,6.70
2023-04-09T05:37:55.925Z,6.70
2023-04-09T05:42:57.372Z,6.80
2023-04-09T05:47:58.847Z,6.80
2023-04-09T05:53:00.311Z,6.80
2023-04-09T05:58:01.739Z,6.80
2023-04-09T06:03:03.207Z,6.70
2023-04-09T06:08:04.708Z,6.70
2023-04-09T06:13:06.134Z,6.70
2023-04-09T06:18:07.609Z,6.60
2023-04-09T06:23:09.054Z,6.40
2023-04-09T06:28:10.527Z,6.30
2023-04-09T06:33:12.002Z,6.30
2023-04-09T06:38:13.454Z,6.20
2023-04-09T06:43:14.891Z,6.20
2023-04-09T06:48:16.327Z,6.30
2023-04-09T06:53:17.844Z,6.50
2023-04-09T06:58:19.309Z,6.60
2023-04-09T07:03:20.978Z,6.70
2023-04-09T07:08:22.667Z,6.70
2023-04-09T07:13:24.129Z,6.70
2023-04-09T07:18:25.569Z,6.60
2023-04-09T07:23:26.998Z,6.50
2023-04-09T07:28:28.454Z,6.50
2023-04-09T07:33:29.957Z,6.60
2023-04-09T07:38:31.401Z,6.70
2023-04-09T07:43:32.848Z,6.70
2023-04-09T07:48:34.281Z,6.80
2023-04-09T07:53:35.717Z,6.90
2023-04-09T07:58:37.166Z,6.90
2023-04-09T08:03:38.732Z,6.90
2023-04-09T08:08:40.273Z,6.90
2023-04-09T08:13:41.760Z,6.90
2023-04-09T08:18:43.240Z,6.90
2023-04-09T08:23:44.692Z,7.00
2023-04-09T08:28:46.173Z,7.00
2023-04-09T08:33:47.616Z,7.00
2023-04-09T08:38:49.062Z,7.00
2023-04-09T08:43:57.602Z,7.00
2023-04-09T08:49:01.084Z,7.10
2023-04-09T08:54:04.339Z,7.10
2023-04-09T08:59:06.562Z,7.20
2023-04-09T09:04:08.102Z,7.10
2023-04-09T09:09:09.555Z,7.20
2023-04-09T09:14:10.999Z,7.40
2023-04-09T09:19:12.499Z,7.70
2023-04-09T09:24:13.961Z,7.80
2023-04-09T09:29:15.396Z,7.80
2023-04-09T09:34:16.947Z,7.80
2023-04-09T09:39:18.406Z,7.80
2023-04-09T09:44:19.857Z,7.90
2023-04-09T09:49:21.299Z,7.90
2023-04-09T09:54:22.756Z,7.90
2023-04-09T09:59:24.252Z,7.90
2023-04-09T10:04:25.773Z,7.90
2023-04-09T10:09:27.321Z,8.00
2023-04-09T10:14:28.781Z,8.00
2023-04-09T10:19:30.224Z,8.00
2023-04-09T10:24:31.664Z,8.00
2023-04-09T10:29:33.113Z,8.00
2023-04-09T10:34:34.565Z,7.90
2023-04-09T10:39:36.006Z,7.80
2023-04-09T10:44:37.439Z,7.70
2023-04-09T10:49:38.896Z,7.60
2023-04-09T10:54:40.366Z,7.50
2023-04-09T10:59:41.812Z,7.50
2023-04-09T11:04:43.256Z,7.40
2023-04-09T11:09:44.736Z,7.50
2023-04-09T11:14:46.159Z,7.50
2023-04-09T11:19:47.597Z,7.50
2023-04-09T11:24:49.040Z,7.60
2023-04-09T11:29:50.489Z,7.60
2023-04-09T11:34:51.947Z,7.70
2023-04-09T11:39:53.851Z,7.70
2023-04-09T11:44:56.183Z,7.70
2023-04-09T11:49:57.635Z,7.70
2023-04-09T11:54:59.086Z,7.70
2023-04-09T12:00:02.067Z,7.70
2023-04-09T12:05:04.668Z,7.70
2023-04-09T12:10:06.239Z,7.70
2023-04-09T12:15:07.718Z,7.80
2023-04-09T12:20:09.144Z,7.80
2023-04-09T12:25:10.582Z,7.80
2023-04-09T12:30:12.041Z,7.70
2023-04-09T12:35:13.508Z,7.70
2023-04-09T12:40:14.968Z,7.80
2023-04-09T12:45:16.395Z,7.90
2023-04-09T12:50:17.855Z,7.90
2023-04-09T12:55:19.281Z,8.00
2023-04-09T13:00:20.739Z,8.00
2023-04-09T13:05:22.180Z,8.00
2023-04-09T13:10:23.637Z,8.10
2023-04-09T13:15:25.075Z,8.10
2023-04-09T13:20:26.556Z,8.20
2023-04-09T13:25:28.000Z,8.40
2023-04-09T13:30:29.471Z,8.50
2023-04-09T13:35:31.004Z,8.50
2023-04-09T13:40:32.483Z,8.60
2023-04-09T13:45:33.945Z,8.70
2023-04-09T13:50:35.410Z,8.70
2023-04-09T13:55:36.846Z,8.80
2023-04-09T14:00:38.289Z,8.90
2023-04-09T14:05:39.745Z,8.90
2023-04-09T14:10:41.199Z,9.00
2023-04-09T14:15:42.706Z,8.90
2023-04-09T14:20:44.184Z,8.90
2023-04-09T14:25:45.609Z,9.00
2023-04-09T14:30:47.185Z,9.00
2023-04-09T14:35:48.666Z,9.00
2023-04-09T14:40:50.114Z,9.00
2023-04-09T14:45:51.571Z,9.00
2023-04-09T14:50:53.016Z,8.90
2023-04-09T14:55:54.449Z,8.90
2023-04-09T15:00:55.927Z,8.90
2023-04-09T15:05:57.377Z,8.90
2023-04-09T15:10:58.847Z,8.90
2023-04-09T15:16:00.363Z,8.90
2023-04-09T15:21:01.892Z,8.80
2023-04-09T15:26:03.321Z,8.80
2023-04-09T15:31:04.793Z,8.80
2023-04-09T15:36:06.275Z,8.70
2023-04-09T15:41:07.714Z,8.70
2023-04-09T15:46:09.192Z,8.60
2023-04-09T15:51:10.691Z,8.60
2023-04-09T15:56:12.211Z,8.60
2023-04-09T16:01:13.796Z,8.50
2023-04-09T16:06:15.354Z,8.60
2023-04-09T16:11:16.792Z,8.60
2023-04-09T16:16:18.291Z,8.50
2023-04-09T16:21:19.755Z,8.40
2023-04-09T16:26:21.203Z,8.40
2023-04-09T16:31:22.653Z,8.40
2023-04-09T16:36:24.193Z,8.40
2023-04-09T16:41:25.657Z,8.40
2023-04-09T16:46:27.160Z,8.40
2023-04-09T16:51:28.611Z,8.30
2023-04-09T16:56:30.036Z,8.30
2023-04-09T17:01:31.572Z,8.20
2023-04-09T17:06:33.051Z,8.20
2023-04-09T17:11:34.822Z,8.20
2023-04-09T17:16:36.319Z,8.20
2023-04-09T17:21:37.805Z,8.10
2023-04-09T17:26:39.281Z,8.10
2023-04-09T17:31:40.726Z,8.10
2023-04-09T17:36:42.193Z,8.10
2023-04-09T17:41:43.643Z,8.00
2023-04-09T17:46:45.182Z,8.00
2023-04-09T17:51:46.763Z,8.00
2023-04-09T17:56:48.257Z,8.00
2023-04-09T18:01:49.873Z,8.00
2023-04-09T18:06:51.514Z,8.00
2023-04-09T18:11:52.981Z,8.00
2023-04-09T18:16:54.412Z,8.00
2023-04-09T18:21:55.841Z,8.00
2023-04-09T18:26:57.308Z,8.00
2023-04-09T18:31:58.758Z,8.00
2023-04-09T18:37:00.194Z,8.00
2023-04-09T18:42:01.649Z,8.00
2023-04-09T18:47:03.268Z,7.90
2023-04-09T18:52:04.873Z,7.90
2023-04-09T18:57:06.301Z,7.90
2023-04-09T19:02:07.811Z,7.90
2023-04-09T19:07:09.346Z,7.90
2023-04-09T19:12:10.800Z,7.90
2023-04-09T19:17:12.243Z,7.90
2023-04-09T19:22:13.678Z,7.80
2023-04-09T19:27:15.107Z,7.80
2023-04-09T19:32:16.530Z,7.90
2023-04-09T19:37:18.007Z,7.90
2023-04-09T19:42:19.449Z,7.90
2023-04-09T19:47:20.913Z,7.90
2023-04-09T19:52:22.381Z,7.90
2023-04-09T19:57:24.000Z,7.90
2023-04-09T20:02:25.641Z,7.90
2023-04-09T20:07:27.302Z,8.00
2023-04-09T20:12:28.771Z,8.00
2023-04-09T20:17:30.250Z,8.00
2023-04-09T20:22:31.724Z,7.90
2023-04-09T20:27:33.185Z,7.90
2023-04-09T20:32:34.668Z,7.90
2023-04-09T20:37:36.145Z,7.90
2023-04-09T20:42:37.665Z,7.90
2023-04-09T20:47:39.148Z,7.90
2023-04-09T20:52:40.641Z,7.90
2023-04-09T20:57:42.102Z,8.00
2023-04-09T21:02:43.660Z,7.90
2023-04-09T21:07:45.296Z,7.90
2023-04-09T21:12:46.750Z,7.80
2023-04-09T21:17:48.244Z,7.80
2023-04-09T21:22:49.768Z,7.80
2023-04-09T21:27:51.249Z,7.70
2023-04-09T21:32:52.761Z,7.60
2023-04-09T21:37:54.232Z,7.50
2023-04-09T21:42:55.684Z,7.50
2023-04-09T21:47:57.221Z,7.40
2023-04-09T21:52:58.669Z,7.40
2023-04-09T21:58:00.103Z,7.30
2023-04-09T22:03:01.837Z,7.30
2023-04-09T22:08:03.517Z,7.30
2023-04-09T22:13:04.986Z,7.20
2023-04-09T22:18:06.461Z,7.20
2023-04-09T22:23:07.909Z,7.20
2023-04-09T22:28:09.331Z,7.30
2023-04-09T22:33:10.769Z,7.30
2023-04-09T22:38:12.214Z,7.40
2023-04-09T22:43:13.673Z,7.40
2023-04-09T22:48:15.093Z,7.50
2023-04-09T22:53:16.518Z,7.50
2023-04-09T22:58:17.979Z,7.50
2023-04-09T23:03:19.571Z,7.40
2023-04-09T23:08:21.150Z,7.40
2023-04-09T23:13:22.612Z,7.30
2023-04-09T23:18:24.049Z,7.20
2023-04-09T23:23:25.469Z,7.10
2023-04-09T23:28:26.919Z,7.00
2023-04-09T23:33:28.344Z,7.00
2023-04-09T23:38:29.784Z,6.90
2023-04-09T23:43:31.204Z,6.90
2023-04-09T23:48:32.640Z,6.80
2023-04-09T23:53:34.059Z,6.90
2023-04-09T23:58:35.513Z,6.80
